Airfield :
LOGIN :

Register | Disclaimer

   EN    FR    IT 

 










Legend :    VFR   Marginal VFR   IFR   Intensive IFR   Very Intensive IFR
Visi :
Ceiling :
>= 8 km
>= 3000ft
5 to 8 km
1000 to 3000 ft
1500m to 5 km
500 to 1000 ft
800 to 1500m
200 to 500 ft
< 800m
< 200 ft
Symbols :   Thunderstorms  Fog  Heavy snow  Heavy precipitations  Wind > 20 kt
SIGMETs :     Misc.  Thunderstorms  Icing  Turbulence  Mountain Waves  Volcanic Ashes






- Airport Elevation : 392 ft
- IATA code : CDG


LFPG - Paris-Aeroport Charles De Gaulle

CURRENT METAR :
  • 050700Z 23010KT 9999 -RA FEW023TCU BKN026 04/02 Q1001 TEMPO 4000 -SHRA BKN006 SCT012TCU

EXPIRED METARs :
  • 050630Z 23012KT 9999 SCT043 BKN100 03/02 Q1001 NOSIG
  • 050600Z 23010KT 9999 BKN025 BKN080 03/01 Q1001 NOSIG
  • 050530Z 23010KT 9999 FEW011 SCT033 BKN110 03/01 Q1002 NOSIG
  • 050500Z 23012KT 9999 FEW046 SCT093 03/01 Q1002 NOSIG
  • 050430Z 24011KT 9999 FEW030 SCT093 BKN120 03/02 Q1002 NOSIG

TAF AMD TAF LFPG
Valid from the 05 at 07:00 until the 06 at 12:00 UTC


050707Z 0507/0612 23010KT 9999 BKN030 TX05/0513Z TN03/0606Z
PROB40
TEMPO 0507/0521 4000 -SHRA BKN006 BKN012TCU
PROB30
TEMPO 0508/0519 30015G25KT 2000 -SHRAGS SCT012CB
BECMG 0512/0514 31010KT
PROB30
TEMPO 0600/0606 4000 BR BKN004
BECMG 0606/0608 BKN008
ATIS : +33 1 48 62 10 92



MET'MAP, your aeronautical weather chart ! - Copyright ORBIFLY December 2007 - Disclaimer

ORBIFLY MET'MAP TEAM :

Programming & Development : Alexandra Zaïnal
Concept & original design : Baudouin d'Aumeries
Assistance for programming : Marc-Olivier Méhu
Technical & hardware support : Manuel Goepfert

Contact : metmap@orbifly.com




SOURCES & CREDITS :

   NOAA